| time (UTC) | temp F | wind direction | speed knots | gust knots | rain 1hr in | rain 24hr in | rain mn in | humidity % | barometer mb |
| 20260503213035 | 88 | 153 | 2.6 | 7.0 | 0.00 | 0.00 | 0.00 | 31 | 1012.4 |
| 20260503211533 | 88 | 92 | 0.9 | 3.5 | 0.00 | 0.00 | 0.00 | 30 | 1012.6 |
| 20260503210043 | 87 | 67 | 0.9 | 3.5 | 0.00 | 0.00 | 0.00 | 35 | 1012.6 |
| 20260503204528 | 87 | 261 | 0.0 | 5.2 | 0.00 | 0.00 | 0.00 | 33 | 1012.7 |
| 20260503203028 | 87 | 244 | 0.0 | 4.3 | 0.00 | 0.00 | 0.00 | 35 | 1012.7 |
| 20260503201533 | 86 | 238 | 1.7 | 4.3 | 0.00 | 0.00 | 0.00 | 34 | 1012.8 |
| 20260503200022 | 86 | 114 | 0.9 | 3.5 | 0.00 | 0.00 | 0.00 | 36 | 1013.0 |
| 20260503194518 | 86 | 92 | 0.9 | 4.3 | 0.00 | 0.00 | 0.00 | 35 | 1013.1 |
| 20260503193017 | 85 | 265 | 0.9 | 3.5 | 0.00 | 0.00 | 0.00 | 37 | 1013.3 |
| 20260503191512 | 85 | 161 | 0.0 | 4.3 | 0.00 | 0.00 | 0.00 | 37 | 1013.4 |
| 20260503190008 | 84 | 219 | 0.0 | 3.5 | 0.00 | 0.00 | 0.00 | 44 | 1013.5 |
| 20260503184504 | 82 | 204 | 0.0 | 3.5 | 0.00 | 0.00 | 0.00 | 42 | 1013.7 |
| 20260503183107 | 81 | 130 | 0.0 | 1.7 | 0.00 | 0.00 | 0.00 | 45 | 1013.7 |
| 20260503181557 | 81 | 112 | 0.9 | 5.2 | 0.00 | 0.00 | 0.00 | 43 | 1013.9 |
| 20260503180105 | 79 | 164 | 0.9 | 3.5 | 0.00 | 0.00 | 0.00 | 48 | 1014.0 |
| 20260503174550 | 79 | 29 | 0.9 | 4.3 | 0.00 | 0.00 | 0.00 | 43 | 1014.1 |
| 20260503173133 | 77 | 186 | 0.0 | 5.2 | 0.00 | 0.00 | 0.00 | 53 | 1014.1 |
| 20260503171547 | 76 | 265 | 0.9 | 5.2 | 0.00 | 0.00 | 0.00 | 48 | 1014.1 |
| 20260503081507 | 53 | 244 | 0.0 | 0.0 | 0.00 | 0.00 | 0.00 | 86 | 1015.7 |
| 20260503071557 | 56 | 244 | 0.0 | 0.0 | 0.00 | 0.00 | 0.00 | 82 | 1015.5 |
| 20260503060151 | 58 | 244 | 0.0 | 0.0 | 0.00 | 0.00 | 0.00 | 79 | 1015.4 |
| 20260503054551 | 58 | 244 | 0.0 | 0.0 | 0.00 | 0.00 | 0.00 | 77 | 1015.4 |
| 20260503053049 | 59 | 244 | 0.0 | 0.0 | 0.00 | 0.00 | 0.00 | 76 | 1015.5 |
| 20260503051549 | 60 | 244 | 0.0 | 0.0 | 0.00 | 0.00 | 0.00 | 75 | 1015.6 |
| 20260503050049 | 61 | 244 | 0.0 | 0.0 | 0.00 | 0.00 | 0.00 | 74 | 1015.6 |
| 20260503044553 | 61 | 244 | 0.0 | 0.0 | 0.00 | 0.00 | 0.00 | 72 | 1015.5 |
| 20260503043047 | 62 | 244 | 0.0 | 0.0 | 0.00 | 0.00 | 0.00 | 68 | 1015.3 |
| 20260503041547 | 63 | 244 | 0.0 | 0.0 | 0.00 | 0.00 | 0.00 | 68 | 1015.0 |
| 20260503040046 | 64 | 244 | 0.0 | 0.0 | 0.00 | 0.00 | 0.00 | 67 | 1014.8 |
| 20260503034548 | 66 | 244 | 0.0 | 0.0 | 0.00 | 0.00 | 0.00 | 64 | 1014.7 |
| 20260503033048 | 67 | 244 | 0.0 | 0.0 | 0.00 | 0.00 | 0.00 | 62 | 1014.4 |
| 20260503031555 | 69 | 244 | 0.0 | 0.0 | 0.00 | 0.00 | 0.00 | 59 | 1014.3 |
| 20260503030047 | 71 | 244 | 0.0 | 1.7 | 0.00 | 0.00 | 0.00 | 56 | 1014.1 |
| 20260503024547 | 72 | 244 | 0.0 | 0.0 | 0.00 | 0.00 | 0.00 | 54 | 1014.1 |
| 20260503023043 | 74 | 244 | 0.0 | 1.7 | 0.00 | 0.00 | 0.00 | 47 | 1014.1 |
| 20260503021546 | 74 | 244 | 0.0 | 2.6 | 0.00 | 0.00 | 0.00 | 46 | 1014.0 |
| 20260503020046 | 76 | 245 | 0.0 | 1.7 | 0.00 | 0.00 | 0.00 | 44 | 1014.2 |
| 20260503014546 | 76 | 245 | 0.0 | 1.7 | 0.00 | 0.00 | 0.00 | 42 | 1014.4 |
| 20260503013043 | 77 | 157 | 0.9 | 3.5 | 0.00 | 0.00 | 0.00 | 39 | 1014.5 |
| 20260503011544 | 77 | 261 | 0.0 | 5.2 | 0.00 | 0.00 | 0.00 | 40 | 1014.4 |
| 20260503010039 | 78 | 134 | 0.9 | 3.5 | 0.00 | 0.00 | 0.00 | 39 | 1014.3 |
| 20260503004537 | 79 | 215 | 0.9 | 2.6 | 0.00 | 0.00 | 0.00 | 38 | 1014.4 |
| 20260503003035 | 81 | 269 | 0.0 | 3.5 | 0.00 | 0.00 | 0.00 | 36 | 1014.5 |
| 20260503001535 | 81 | 263 | 0.0 | 2.6 | 0.00 | 0.00 | 0.00 | 37 | 1014.6 |
| 20260503000044 | 82 | 249 | 0.9 | 4.3 | 0.00 | 0.00 | 0.00 | 36 | 1014.6 |
| 20260502234532 | 82 | 221 | 0.9 | 5.2 | 0.00 | 0.00 | 0.00 | 35 | 1014.6 |
| 20260502233029 | 82 | 235 | 0.0 | 3.5 | 0.00 | 0.00 | 0.00 | 37 | 1014.8 |
| 20260502231527 | 83 | 215 | 0.0 | 6.1 | 0.00 | 0.00 | 0.00 | 37 | 1015.0 |
| 20260502230025 | 83 | 233 | 0.9 | 4.3 | 0.00 | 0.00 | 0.00 | 35 | 1015.2 |
| 20260502224521 | 83 | 215 | 0.0 | 4.3 | 0.00 | 0.00 | 0.00 | 40 | 1015.3 |
| 20260502223020 | 82 | 295 | 0.9 | 3.5 | 0.00 | 0.00 | 0.00 | 38 | 1015.4 |
| 20260502221522 | 82 | 78 | 1.7 | 6.1 | 0.00 | 0.00 | 0.00 | 35 | 1015.6 |
| 20260502220017 | 82 | 83 | 0.9 | 4.3 | 0.00 | 0.00 | 0.00 | 40 | 1015.5 |
| 20260502214515 | 82 | 12 | 1.7 | 5.2 | 0.00 | 0.00 | 0.00 | 37 | 1015.7 |